createdAt,value
2019-03-15T00:01:32.104Z,16.97
2019-03-15T00:04:00.047Z,16.95
2019-03-15T00:06:27.785Z,15.15
2019-03-15T00:08:55.798Z,17.15
2019-03-15T00:11:23.575Z,15.80
2019-03-15T00:13:52.781Z,16.73
2019-03-15T00:16:20.650Z,15.53
2019-03-15T00:18:48.391Z,16.80
2019-03-15T00:21:16.374Z,16.85
2019-03-15T00:23:44.227Z,16.45
2019-03-15T00:26:12.518Z,15.63
2019-03-15T00:28:40.232Z,16.00
2019-03-15T00:31:08.215Z,16.57
2019-03-15T00:33:36.253Z,16.20
2019-03-15T00:36:04.725Z,15.83
2019-03-15T00:38:32.427Z,17.02
2019-03-15T00:41:00.849Z,15.68
2019-03-15T00:43:29.597Z,16.17
2019-03-15T00:45:57.498Z,15.38
2019-03-15T00:48:25.434Z,15.00
2019-03-15T00:50:53.629Z,15.05
2019-03-15T00:53:21.330Z,16.67
2019-03-15T00:55:49.373Z,15.83
2019-03-15T00:58:17.189Z,14.93
2019-03-15T01:00:45.097Z,14.18
2019-03-15T01:03:14.182Z,15.13
2019-03-15T01:05:42.192Z,15.45
2019-03-15T01:08:11.031Z,15.03
2019-03-15T01:10:39.380Z,16.35
2019-03-15T01:13:07.303Z,15.50
2019-03-15T01:15:35.002Z,16.10
2019-03-15T01:18:03.067Z,14.83
2019-03-15T01:20:30.762Z,15.45
2019-03-15T01:22:58.498Z,15.25
2019-03-15T01:25:26.264Z,15.10
2019-03-15T01:27:55.092Z,14.47
2019-03-15T01:30:22.813Z,15.88
2019-03-15T01:32:50.581Z,14.38
2019-03-15T01:35:18.306Z,14.87
2019-03-15T01:37:48.056Z,14.87
2019-03-15T01:40:15.935Z,15.28
2019-03-15T01:42:47.633Z,13.45
2019-03-15T01:45:15.848Z,15.25
2019-03-15T01:47:43.932Z,16.07
2019-03-15T01:50:11.968Z,16.73
2019-03-15T01:52:40.934Z,16.90
2019-03-15T01:55:08.937Z,14.93
2019-03-15T01:57:36.705Z,16.62
2019-03-15T02:00:05.467Z,16.10
2019-03-15T02:02:33.243Z,16.97
2019-03-15T02:05:00.926Z,15.28
2019-03-15T02:07:29.081Z,17.10
2019-03-15T02:09:56.801Z,15.93
2019-03-15T02:12:24.534Z,15.43
2019-03-15T02:14:52.224Z,16.75
2019-03-15T02:17:20.017Z,16.48
2019-03-15T02:19:48.174Z,15.45
2019-03-15T02:22:15.963Z,17.00
2019-03-15T02:24:44.116Z,16.32
2019-03-15T02:27:16.064Z,16.65
2019-03-15T02:29:44.048Z,17.50
2019-03-15T02:32:12.894Z,17.70
2019-03-15T02:34:41.559Z,15.18
2019-03-15T02:37:10.361Z,18.90
2019-03-15T02:39:38.080Z,21.95
2019-03-15T02:42:07.933Z,22.22
2019-03-15T02:44:35.657Z,21.48
2019-03-15T02:47:03.382Z,20.92
2019-03-15T02:49:32.391Z,20.48
2019-03-15T02:52:00.093Z,18.67
2019-03-15T02:54:29.543Z,17.23
2019-03-15T02:56:57.344Z,17.95
2019-03-15T02:59:25.599Z,17.62
2019-03-15T03:01:53.295Z,16.73
2019-03-15T03:04:21.436Z,16.73
2019-03-15T03:06:49.197Z,16.62
2019-03-15T03:09:17.121Z,16.45
2019-03-15T03:11:44.902Z,15.60
2019-03-15T03:14:12.807Z,16.12
2019-03-15T03:16:40.514Z,14.73
2019-03-15T03:19:08.587Z,15.43
2019-03-15T03:21:36.768Z,16.55
2019-03-15T03:24:04.723Z,16.90
2019-03-15T03:26:32.492Z,16.77
2019-03-15T03:29:01.202Z,16.10
2019-03-15T03:31:29.505Z,16.00
2019-03-15T03:33:57.190Z,15.72
2019-03-15T03:36:25.231Z,16.40
2019-03-15T03:38:53.430Z,16.60
2019-03-15T03:41:23.063Z,15.53
2019-03-15T03:43:51.263Z,17.57
2019-03-15T03:46:18.959Z,16.42
2019-03-15T03:48:46.658Z,15.15
2019-03-15T03:51:14.383Z,16.00
2019-03-15T03:53:46.712Z,16.12
2019-03-15T03:56:14.542Z,17.65
2019-03-15T03:58:42.652Z,17.02
2019-03-15T04:01:10.491Z,15.23
2019-03-15T04:03:38.422Z,17.37
2019-03-15T04:06:06.337Z,16.73
2019-03-15T04:08:34.440Z,17.48
2019-03-15T04:11:02.145Z,16.00
2019-03-15T04:13:32.122Z,18.57
2019-03-15T04:16:01.860Z,17.65
2019-03-15T04:18:29.696Z,19.40
2019-03-15T04:20:57.512Z,19.12
2019-03-15T04:23:25.408Z,19.57
2019-03-15T04:25:53.765Z,18.45
2019-03-15T04:28:21.497Z,19.02
2019-03-15T04:30:49.356Z,19.67
2019-03-15T04:33:19.314Z,18.87
2019-03-15T04:35:47.115Z,20.45
2019-03-15T04:38:15.490Z,19.15
2019-03-15T04:40:43.314Z,18.85
2019-03-15T04:43:11.543Z,20.15
2019-03-15T04:45:39.254Z,19.67
2019-03-15T04:48:07.724Z,19.95
2019-03-15T04:50:35.683Z,19.77
2019-03-15T04:53:03.384Z,19.10
2019-03-15T04:55:31.360Z,20.88
2019-03-15T04:57:59.164Z,22.20
2019-03-15T05:00:29.219Z,21.00
2019-03-15T05:02:56.961Z,20.70
2019-03-15T05:05:26.925Z,20.37
2019-03-15T05:07:54.748Z,20.82
2019-03-15T05:10:22.713Z,21.93
2019-03-15T05:12:50.599Z,21.25
2019-03-15T05:15:18.656Z,22.32
2019-03-15T05:17:48.597Z,20.35
2019-03-15T05:20:16.602Z,19.82
2019-03-15T05:22:45.349Z,22.85
2019-03-15T05:25:13.062Z,22.25
2019-03-15T05:27:40.826Z,21.33
2019-03-15T05:30:09.246Z,22.58
2019-03-15T05:32:37.048Z,22.32
2019-03-15T05:35:05.307Z,21.23
2019-03-15T05:37:33.685Z,21.50
2019-03-15T05:40:02.342Z,22.45
2019-03-15T05:42:31.057Z,21.85
2019-03-15T05:44:59.018Z,23.92
2019-03-15T05:47:27.195Z,24.57
2019-03-15T05:49:56.147Z,23.50
2019-03-15T05:52:30.077Z,24.75
2019-03-15T05:54:57.846Z,24.37
2019-03-15T05:57:25.976Z,25.95
2019-03-15T05:59:54.091Z,23.57
2019-03-15T06:02:22.120Z,21.80
2019-03-15T06:04:50.027Z,22.70
2019-03-15T06:07:19.764Z,21.93
2019-03-15T06:09:50.102Z,23.15
2019-03-15T06:12:18.068Z,21.05
2019-03-15T06:14:47.031Z,22.87
2019-03-15T06:17:20.873Z,24.27
2019-03-15T06:19:49.186Z,24.23
2019-03-15T06:22:16.993Z,26.35
2019-03-15T06:24:45.231Z,23.22
2019-03-15T06:27:12.905Z,24.52
2019-03-15T06:29:40.661Z,23.22
2019-03-15T06:32:08.347Z,23.42
2019-03-15T06:34:39.474Z,23.70
2019-03-15T06:37:26.406Z,23.07
2019-03-15T06:39:54.150Z,22.02
2019-03-15T06:42:23.279Z,21.48
2019-03-15T06:44:57.742Z,22.65
2019-03-15T06:47:20.708Z,22.07
2019-03-15T06:49:48.465Z,20.88
2019-03-15T06:52:16.352Z,20.48
2019-03-15T06:54:44.162Z,21.62
2019-03-15T06:57:12.099Z,21.33
2019-03-15T06:59:40.629Z,21.87
2019-03-15T07:02:09.527Z,22.05
2019-03-15T07:04:37.290Z,21.75
2019-03-15T07:07:05.209Z,22.07
2019-03-15T07:09:38.752Z,20.30
2019-03-15T07:12:09.635Z,20.75
2019-03-15T07:14:36.322Z,21.42
2019-03-15T07:17:05.066Z,21.68
2019-03-15T07:19:33.543Z,23.18
2019-03-15T07:22:01.698Z,22.05
2019-03-15T07:24:29.435Z,22.32
2019-03-15T07:26:57.134Z,24.20
2019-03-15T07:29:24.957Z,24.30
2019-03-15T07:31:52.678Z,23.30
2019-03-15T07:34:20.392Z,27.25
2019-03-15T07:36:48.186Z,25.17
2019-03-15T07:39:16.011Z,27.07
2019-03-15T07:41:43.741Z,29.55
2019-03-15T07:44:11.472Z,27.25
2019-03-15T07:46:39.350Z,25.97
2019-03-15T07:49:07.664Z,26.45
2019-03-15T07:51:35.689Z,26.65
2019-03-15T07:54:03.639Z,26.75
2019-03-15T07:56:31.576Z,25.85
2019-03-15T07:58:59.362Z,24.37
2019-03-15T08:01:27.138Z,25.60
2019-03-15T08:03:54.838Z,28.92
2019-03-15T08:06:34.005Z,27.55
2019-03-15T08:08:52.839Z,29.77
2019-03-15T08:11:20.578Z,29.82
2019-03-15T08:13:48.596Z,30.45
2019-03-15T08:16:16.353Z,29.57
2019-03-15T08:18:44.562Z,27.32
2019-03-15T08:21:12.681Z,27.73
2019-03-15T08:23:40.525Z,26.00
2019-03-15T08:26:08.238Z,23.97
2019-03-15T08:28:36.074Z,25.47
2019-03-15T08:31:04.445Z,26.73
2019-03-15T08:33:32.126Z,25.97
2019-03-15T08:36:00.328Z,27.07
2019-03-15T08:38:28.052Z,27.40
2019-03-15T08:40:56.676Z,23.03
2019-03-15T08:43:24.417Z,21.13
2019-03-15T08:45:52.774Z,22.53
2019-03-15T08:48:20.849Z,21.60
2019-03-15T08:50:48.646Z,21.37
2019-03-15T08:53:16.417Z,21.20
2019-03-15T08:55:44.120Z,23.77
2019-03-15T08:58:14.560Z,22.77
2019-03-15T09:00:41.754Z,22.70
2019-03-15T09:03:09.475Z,21.60
2019-03-15T09:05:37.188Z,20.70
2019-03-15T09:08:04.476Z,21.10
2019-03-15T09:10:32.172Z,18.80
2019-03-15T09:12:59.927Z,20.27
2019-03-15T09:15:27.605Z,19.37
2019-03-15T09:17:56.053Z,19.70
2019-03-15T09:20:29.655Z,18.30
2019-03-15T09:22:53.851Z,19.00
2019-03-15T09:25:21.638Z,20.00
2019-03-15T09:27:49.768Z,21.47
2019-03-15T09:30:23.540Z,18.63
2019-03-15T09:32:50.348Z,17.00
2019-03-15T09:35:18.480Z,16.37
2019-03-15T09:37:49.135Z,18.10
2019-03-15T09:40:17.064Z,17.30
2019-03-15T09:42:45.293Z,15.20
2019-03-15T09:45:13.422Z,15.60
2019-03-15T09:47:43.144Z,15.30
2019-03-15T09:50:21.515Z,14.87
2019-03-15T09:52:42.917Z,14.83
2019-03-15T09:55:11.074Z,15.00
2019-03-15T09:57:39.072Z,16.53
2019-03-15T10:00:11.251Z,14.80
2019-03-15T10:02:39.346Z,15.93
2019-03-15T10:05:11.366Z,16.37
2019-03-15T10:07:38.643Z,15.73
2019-03-15T10:10:13.355Z,12.70
2019-03-15T10:12:39.124Z,12.20
2019-03-15T10:15:08.297Z,14.03
2019-03-15T10:17:38.833Z,14.80
2019-03-15T10:20:06.931Z,14.10
2019-03-15T10:22:34.924Z,13.40
2019-03-15T10:25:02.804Z,13.97
2019-03-15T10:27:30.646Z,14.50
2019-03-15T10:29:58.950Z,14.70
2019-03-15T10:32:26.696Z,15.57
2019-03-15T10:34:54.750Z,13.13
2019-03-15T10:37:22.444Z,14.77
2019-03-15T10:39:50.465Z,13.40
2019-03-15T10:42:20.215Z,12.70
2019-03-15T10:44:47.929Z,12.60
2019-03-15T10:47:16.103Z,12.67
2019-03-15T10:49:43.825Z,13.00
2019-03-15T10:52:11.853Z,11.97
2019-03-15T10:54:39.660Z,11.27
2019-03-15T10:57:10.846Z,13.13
2019-03-15T10:59:38.766Z,11.70
2019-03-15T11:02:06.855Z,13.20
2019-03-15T11:04:34.850Z,12.37
2019-03-15T11:07:02.565Z,11.80
2019-03-15T11:09:30.266Z,11.70
2019-03-15T11:11:58.402Z,11.93
2019-03-15T11:14:26.786Z,11.60
2019-03-15T11:16:54.537Z,11.70
2019-03-15T11:19:22.217Z,10.50
2019-03-15T11:21:50.065Z,10.80
2019-03-15T11:24:17.789Z,9.90
2019-03-15T11:26:45.641Z,9.63
2019-03-15T11:29:13.336Z,9.43
2019-03-15T11:31:41.399Z,10.20
2019-03-15T11:34:09.080Z,8.97
2019-03-15T11:36:37.067Z,9.40
2019-03-15T11:39:06.876Z,8.77
2019-03-15T11:41:34.624Z,8.23
2019-03-15T11:44:05.465Z,8.40
2019-03-15T11:46:33.160Z,8.60
2019-03-15T11:49:00.900Z,9.00
2019-03-15T11:51:28.720Z,10.08
2019-03-15T11:53:56.436Z,8.90
2019-03-15T11:56:27.204Z,8.87
2019-03-15T11:58:55.816Z,8.80
2019-03-15T12:01:23.518Z,9.00
2019-03-15T12:03:53.324Z,8.58
2019-03-15T12:06:21.290Z,7.20
2019-03-15T12:08:49.084Z,8.45
2019-03-15T12:11:17.087Z,8.40
2019-03-15T12:13:45.768Z,7.75
2019-03-15T12:16:15.463Z,7.08
2019-03-15T12:18:44.361Z,7.50
2019-03-15T12:21:13.461Z,7.97
2019-03-15T12:23:44.017Z,8.15
2019-03-15T12:26:12.397Z,6.58
2019-03-15T12:28:40.577Z,6.67
2019-03-15T12:31:08.517Z,6.70
2019-03-15T12:33:36.616Z,8.38
2019-03-15T12:36:04.666Z,7.50
2019-03-15T12:38:33.380Z,7.08
2019-03-15T12:41:01.091Z,7.47
2019-03-15T12:43:28.780Z,7.60
2019-03-15T12:45:57.885Z,6.85
2019-03-15T12:48:25.705Z,5.78
2019-03-15T12:50:53.931Z,6.20
2019-03-15T12:53:21.863Z,6.95
2019-03-15T12:55:50.870Z,7.20
2019-03-15T12:58:18.582Z,6.72
2019-03-15T13:00:46.388Z,7.22
2019-03-15T13:03:14.058Z,6.47
2019-03-15T13:05:43.277Z,7.20
2019-03-15T13:08:11.010Z,6.87
2019-03-15T13:10:39.731Z,6.85
2019-03-15T13:13:07.444Z,7.50
2019-03-15T13:15:35.824Z,8.35
2019-03-15T13:18:04.393Z,7.97
2019-03-15T13:20:32.104Z,6.45
2019-03-15T13:22:59.791Z,6.20
2019-03-15T13:25:27.580Z,5.67
2019-03-15T13:27:55.305Z,6.95
2019-03-15T13:30:23.010Z,6.87
2019-03-15T13:32:50.975Z,6.53
2019-03-15T13:35:18.675Z,6.12
2019-03-15T13:37:46.375Z,6.10
2019-03-15T13:40:14.230Z,5.20
2019-03-15T13:42:41.964Z,5.75
2019-03-15T13:45:10.000Z,5.72
2019-03-15T13:47:37.810Z,5.37
2019-03-15T13:50:08.185Z,5.50
2019-03-15T13:52:35.868Z,6.35
2019-03-15T13:55:03.834Z,5.67
2019-03-15T13:57:31.534Z,5.80
2019-03-15T13:59:59.508Z,5.83
2019-03-15T14:02:27.202Z,5.65
2019-03-15T14:04:55.337Z,7.00
2019-03-15T14:07:23.206Z,6.12
2019-03-15T14:09:50.911Z,6.25
2019-03-15T14:12:19.731Z,7.97
2019-03-15T14:14:47.443Z,6.08
2019-03-15T14:17:15.140Z,5.55
2019-03-15T14:19:42.876Z,5.62
2019-03-15T14:22:10.580Z,6.22
2019-03-15T14:24:38.278Z,5.95
2019-03-15T14:27:06.104Z,6.03
2019-03-15T14:29:33.817Z,7.45
2019-03-15T14:32:01.519Z,6.95
2019-03-15T14:34:30.484Z,7.35
2019-03-15T14:36:58.253Z,6.65
2019-03-15T14:39:28.404Z,6.15
2019-03-15T14:41:56.311Z,6.05
2019-03-15T14:44:25.245Z,5.25
2019-03-15T14:46:53.085Z,5.15
2019-03-15T14:49:20.770Z,5.40
2019-03-15T14:51:48.467Z,6.45
2019-03-15T14:54:16.157Z,6.20
2019-03-15T14:56:43.977Z,5.92
2019-03-15T14:59:11.741Z,6.37
2019-03-15T15:01:39.434Z,6.47
2019-03-15T15:04:07.116Z,6.95
2019-03-15T15:06:34.835Z,5.78
2019-03-15T15:09:04.907Z,6.12
2019-03-15T15:11:32.696Z,5.80
2019-03-15T15:14:00.460Z,6.08
2019-03-15T15:16:28.343Z,6.20
2019-03-15T15:18:56.064Z,7.20
2019-03-15T15:21:25.354Z,7.08
2019-03-15T15:23:53.046Z,6.87
2019-03-15T15:26:21.457Z,5.80
2019-03-15T15:28:49.577Z,6.30
2019-03-15T15:31:19.871Z,7.87
2019-03-15T15:33:47.942Z,9.03
2019-03-15T15:36:16.231Z,7.72
2019-03-15T15:38:43.954Z,9.05
2019-03-15T15:41:11.690Z,8.48
2019-03-15T15:43:39.413Z,27.15
2019-03-15T15:46:09.575Z,9.20
2019-03-15T15:48:37.242Z,9.80
2019-03-15T15:51:05.017Z,9.43
2019-03-15T15:53:32.900Z,10.03
2019-03-15T15:56:00.573Z,9.50
2019-03-15T15:58:28.625Z,8.53
2019-03-15T16:00:58.308Z,9.28
2019-03-15T16:03:26.026Z,9.00
2019-03-15T16:05:55.576Z,9.00
2019-03-15T16:08:23.287Z,8.30
2019-03-15T16:10:53.228Z,9.03
2019-03-15T16:13:20.942Z,9.00
2019-03-15T16:15:48.719Z,9.80
2019-03-15T16:18:16.439Z,9.50
2019-03-15T16:20:44.954Z,15.68
2019-03-15T16:23:13.648Z,10.08
2019-03-15T16:25:41.640Z,11.55
2019-03-15T16:28:09.563Z,10.72
2019-03-15T16:30:37.250Z,10.63
2019-03-15T16:33:04.986Z,12.73
2019-03-15T16:35:32.771Z,11.43
2019-03-15T16:38:00.486Z,12.00
2019-03-15T16:40:28.182Z,13.32
2019-03-15T16:42:55.895Z,13.10
2019-03-15T16:45:23.642Z,13.10
2019-03-15T16:47:51.394Z,14.35
2019-03-15T16:50:19.529Z,13.48
2019-03-15T16:52:47.601Z,14.80
2019-03-15T16:55:15.436Z,13.35
2019-03-15T16:57:43.258Z,13.30
2019-03-15T17:00:11.817Z,12.30
2019-03-15T17:02:39.630Z,11.28
2019-03-15T17:05:07.825Z,9.70
2019-03-15T17:07:35.527Z,11.43
2019-03-15T17:10:03.794Z,10.60
2019-03-15T17:12:32.407Z,10.50
2019-03-15T17:15:00.783Z,10.23
2019-03-15T17:17:28.464Z,10.85
2019-03-15T17:19:56.161Z,10.40
2019-03-15T17:22:23.889Z,9.18
2019-03-15T17:24:51.770Z,8.45
2019-03-15T17:27:19.464Z,7.58
2019-03-15T17:29:47.166Z,8.15
2019-03-15T17:32:14.879Z,7.35
2019-03-15T17:34:42.804Z,10.15
2019-03-15T17:37:10.503Z,10.85
2019-03-15T17:39:38.506Z,12.75
2019-03-15T17:42:06.267Z,11.48
2019-03-15T17:44:34.030Z,12.37
2019-03-15T17:47:02.061Z,12.35
2019-03-15T17:49:29.748Z,10.25
2019-03-15T17:51:57.428Z,12.25
2019-03-15T17:54:25.414Z,6.72
2019-03-15T17:56:53.191Z,8.25
2019-03-15T17:59:20.884Z,6.92
2019-03-15T18:01:48.577Z,10.10
2019-03-15T18:04:16.291Z,8.90
2019-03-15T18:06:44.012Z,5.30
2019-03-15T18:09:12.182Z,7.45
2019-03-15T18:11:39.867Z,6.08
2019-03-15T18:14:07.593Z,5.35
2019-03-15T18:16:35.264Z,7.10
2019-03-15T18:19:03.804Z,6.17
2019-03-15T18:21:31.482Z,6.53
2019-03-15T18:23:59.203Z,9.00
2019-03-15T18:26:26.869Z,15.50
2019-03-15T18:28:54.618Z,15.18
2019-03-15T18:31:23.886Z,12.70
2019-03-15T18:33:52.163Z,11.78
2019-03-15T18:36:20.199Z,11.43
2019-03-15T18:38:48.208Z,8.75
2019-03-15T18:41:16.198Z,10.20
2019-03-15T18:43:44.243Z,10.10
2019-03-15T18:46:12.060Z,11.90
2019-03-15T18:48:39.986Z,14.83
2019-03-15T18:51:07.846Z,14.00
2019-03-15T18:53:35.813Z,16.17
2019-03-15T18:56:03.614Z,13.18
2019-03-15T18:58:31.502Z,10.03
2019-03-15T19:00:59.255Z,12.33
2019-03-15T19:03:28.087Z,11.35
2019-03-15T19:05:55.838Z,11.90
2019-03-15T19:08:23.748Z,11.10
2019-03-15T19:10:51.621Z,13.03
2019-03-15T19:13:19.500Z,9.95
2019-03-15T19:15:47.680Z,11.85
2019-03-15T19:18:15.625Z,10.75
2019-03-15T19:20:45.182Z,10.20
2019-03-15T19:23:12.982Z,10.72
2019-03-15T19:25:40.835Z,10.28
2019-03-15T19:28:08.738Z,10.70
2019-03-15T19:30:36.636Z,20.68
2019-03-15T19:33:04.458Z,10.30
2019-03-15T19:35:32.891Z,10.38
2019-03-15T19:38:00.695Z,11.15
2019-03-15T19:40:28.834Z,10.18
2019-03-15T19:42:56.757Z,10.80
2019-03-15T19:45:24.560Z,11.78
2019-03-15T19:47:52.621Z,10.43
2019-03-15T19:50:20.829Z,10.35
2019-03-15T19:52:50.594Z,12.35
2019-03-15T19:55:18.565Z,10.15
2019-03-15T19:57:46.417Z,12.00
2019-03-15T20:00:15.630Z,9.48
2019-03-15T20:02:43.713Z,9.03
2019-03-15T20:05:11.504Z,9.68
2019-03-15T20:07:39.589Z,10.75
2019-03-15T20:10:08.875Z,9.90
2019-03-15T20:12:37.735Z,10.70
2019-03-15T20:15:05.790Z,14.65
2019-03-15T20:17:35.054Z,15.08
2019-03-15T20:20:03.423Z,9.43
2019-03-15T20:22:31.611Z,9.60
2019-03-15T20:24:59.492Z,8.18
2019-03-15T20:27:28.812Z,8.98
2019-03-15T20:29:58.911Z,8.58
2019-03-15T20:32:26.592Z,8.10
2019-03-15T20:34:54.667Z,9.75
2019-03-15T20:37:22.843Z,9.00
2019-03-15T20:39:50.889Z,8.80
2019-03-15T20:42:18.977Z,7.95
2019-03-15T20:44:49.001Z,8.58
2019-03-15T20:47:17.201Z,8.05
2019-03-15T20:49:45.120Z,7.40
2019-03-15T20:52:12.975Z,7.83
2019-03-15T20:54:46.525Z,8.65
2019-03-15T20:57:16.928Z,9.50
2019-03-15T20:59:44.924Z,9.30
2019-03-15T21:02:12.637Z,8.03
2019-03-15T21:04:40.474Z,7.85
2019-03-15T21:07:09.222Z,8.50
2019-03-15T21:09:37.013Z,9.53
2019-03-15T21:12:04.926Z,8.65
2019-03-15T21:14:32.756Z,8.73
2019-03-15T21:17:00.697Z,9.50
2019-03-15T21:19:34.012Z,9.88
2019-03-15T21:22:02.157Z,10.15
2019-03-15T21:24:29.944Z,9.68
2019-03-15T21:26:57.849Z,11.05
2019-03-15T21:29:27.579Z,9.38
2019-03-15T21:31:55.685Z,8.40
2019-03-15T21:34:25.162Z,7.75
2019-03-15T21:36:54.185Z,8.90
2019-03-15T21:39:24.182Z,8.90
2019-03-15T21:41:52.052Z,9.30
2019-03-15T21:44:19.892Z,9.00
2019-03-15T21:46:47.736Z,9.55
2019-03-15T21:49:17.222Z,8.68
2019-03-15T21:51:45.079Z,17.45
2019-03-15T21:54:15.080Z,9.30
2019-03-15T21:56:44.117Z,9.90
2019-03-15T21:59:12.009Z,9.03
2019-03-15T22:01:39.850Z,9.78
2019-03-15T22:04:07.738Z,10.08
2019-03-15T22:06:35.546Z,9.25
2019-03-15T22:09:05.465Z,9.65
2019-03-15T22:11:33.317Z,9.53
2019-03-15T22:14:01.317Z,10.25
2019-03-15T22:16:29.045Z,9.83
2019-03-15T22:18:56.986Z,13.55
2019-03-15T22:21:24.801Z,14.53
2019-03-15T22:23:54.808Z,14.05
2019-03-15T22:26:22.575Z,14.18
2019-03-15T22:28:50.924Z,15.58
2019-03-15T22:31:18.664Z,15.25
2019-03-15T22:33:47.241Z,15.23
2019-03-15T22:36:15.369Z,14.95
2019-03-15T22:38:43.241Z,15.60
2019-03-15T22:41:15.466Z,15.43
2019-03-15T22:43:44.130Z,16.40
2019-03-15T22:46:12.122Z,17.00
2019-03-15T22:48:39.982Z,17.60
2019-03-15T22:51:07.830Z,17.52
2019-03-15T22:53:36.916Z,16.10
2019-03-15T22:56:04.819Z,14.85
2019-03-15T22:58:32.996Z,14.28
2019-03-15T23:01:01.380Z,13.18
2019-03-15T23:03:31.238Z,13.98
2019-03-15T23:05:59.162Z,13.83
2019-03-15T23:08:26.964Z,12.93
2019-03-15T23:10:55.711Z,12.88
2019-03-15T23:13:23.532Z,13.53
2019-03-15T23:15:51.830Z,14.93
2019-03-15T23:18:19.619Z,14.07
2019-03-15T23:20:47.602Z,16.07
2019-03-15T23:23:23.823Z,17.12
2019-03-15T23:25:46.656Z,14.60
2019-03-15T23:28:14.817Z,14.65
2019-03-15T23:30:42.775Z,17.32
2019-03-15T23:33:10.903Z,15.13
2019-03-15T23:35:53.047Z,16.40
2019-03-15T23:38:08.731Z,16.05
2019-03-15T23:40:36.662Z,15.28
2019-03-15T23:43:04.602Z,15.72
2019-03-15T23:45:33.637Z,16.80
2019-03-15T23:48:01.701Z,17.10
2019-03-15T23:50:29.746Z,16.30
2019-03-15T23:53:00.895Z,17.12
2019-03-15T23:55:30.410Z,17.98
2019-03-15T23:57:58.885Z,17.45
